RUK7QL EGPH-EGAA
Flight info
| Callsign | RUK7QL |
|---|---|
| Flight time | 0h 33m |
| Altitude | 24000 |
| Route | GOSAM P600 BLACA DCT BELZU |
| Aircraft | B738/M-SDE2E3FGHIRWXY/LB1 |
Departure
| Time | 2026-04-20 18:29 |
|---|---|
| Airport | Edinburgh Airport (EGPH) |
Arrival
| Time | 2026-04-20 19:03 |
|---|---|
| Airport | Belfast International Airport (EGAA) |
| Time | Latitude | Longitude | Altitude | Speed | Heading |
|---|---|---|---|---|---|
| 2026-04-20 18:13 | 55.94898 | -3.36484 | 144 ft | 0 kts | 149° |
| 2026-04-20 18:20 | 55.94902 | -3.36488 | 144 ft | 2 kts | 149° |
| 2026-04-20 18:20 | 55.94907 | -3.36495 | 144 ft | 2 kts | 149° |
| 2026-04-20 18:20 | 55.94922 | -3.36506 | 144 ft | 3 kts | 171° |
| 2026-04-20 18:20 | 55.94942 | -3.36502 | 144 ft | 3 kts | 205° |
| 2026-04-20 18:21 | 55.94957 | -3.36480 | 144 ft | 3 kts | 230° |
| 2026-04-20 18:21 | 55.94960 | -3.36474 | 144 ft | 0 kts | 230° |
| 2026-04-20 18:22 | 55.94959 | -3.36476 | 144 ft | 1 kts | 231° |
| 2026-04-20 18:23 | 55.94955 | -3.36497 | 144 ft | 3 kts | 259° |
| 2026-04-20 18:23 | 55.94955 | -3.36540 | 144 ft | 5 kts | 270° |
| 2026-04-20 18:23 | 55.94942 | -3.36605 | 144 ft | 6 kts | 238° |
| 2026-04-20 18:23 | 55.94915 | -3.36686 | 144 ft | 9 kts | 239° |
| 2026-04-20 18:24 | 55.94899 | -3.36794 | 144 ft | 10 kts | 300° |
| 2026-04-20 18:24 | 55.94933 | -3.36878 | 144 ft | 8 kts | 249° |
| 2026-04-20 18:24 | 55.94901 | -3.36976 | 144 ft | 10 kts | 239° |
| 2026-04-20 18:24 | 55.94860 | -3.37098 | 144 ft | 13 kts | 239° |
| 2026-04-20 18:25 | 55.94811 | -3.37246 | 144 ft | 15 kts | 239° |
| 2026-04-20 18:25 | 55.94753 | -3.37418 | 144 ft | 17 kts | 239° |
| 2026-04-20 18:25 | 55.94686 | -3.37617 | 144 ft | 20 kts | 239° |
| 2026-04-20 18:25 | 55.94613 | -3.37835 | 144 ft | 22 kts | 239° |
| 2026-04-20 18:26 | 55.94531 | -3.38078 | 144 ft | 24 kts | 239° |
| 2026-04-20 18:26 | 55.94441 | -3.38344 | 144 ft | 26 kts | 239° |
| 2026-04-20 18:26 | 55.94349 | -3.38618 | 144 ft | 22 kts | 239° |
| 2026-04-20 18:26 | 55.94297 | -3.38772 | 144 ft | 13 kts | 239° |
| 2026-04-20 18:27 | 55.94295 | -3.38854 | 144 ft | 6 kts | 302° |
| 2026-04-20 18:27 | 55.94331 | -3.38907 | 144 ft | 8 kts | 329° |
| 2026-04-20 18:27 | 55.94384 | -3.38964 | 144 ft | 10 kts | 329° |
| 2026-04-20 18:27 | 55.94430 | -3.38945 | 144 ft | 6 kts | 55° |
| 2026-04-20 18:28 | 55.94446 | -3.38898 | 144 ft | 1 kts | 59° |
| 2026-04-20 18:28 | 55.94447 | -3.38898 | 144 ft | 0 kts | 59° |
| 2026-04-20 18:29 | 55.94466 | -3.38840 | 144 ft | 26 kts | 59° |
| 2026-04-20 18:29 | 55.94695 | -3.38159 | 144 ft | 99 kts | 59° |
| 2026-04-20 18:29 | 55.95157 | -3.36788 | 274 ft | 147 kts | 59° |
| 2026-04-20 18:29 | 55.95707 | -3.35153 | 927 ft | 162 kts | 59° |
| 2026-04-20 18:30 | 55.96331 | -3.33366 | 1562 ft | 182 kts | 53° |
| 2026-04-20 18:30 | 55.96938 | -3.32264 | 2009 ft | 194 kts | 44° |
| 2026-04-20 18:30 | 55.98411 | -3.30125 | 2964 ft | 214 kts | 40° |
| 2026-04-20 18:30 | 55.99217 | -3.29033 | 3464 ft | 222 kts | 39° |
| 2026-04-20 18:31 | 56.00480 | -3.27343 | 4202 ft | 231 kts | 39° |
| 2026-04-20 18:31 | 56.01934 | -3.25983 | 4911 ft | 240 kts | 19° |
| 2026-04-20 18:31 | 56.03589 | -3.25939 | 5630 ft | 244 kts | 352° |
| 2026-04-20 18:31 | 56.05112 | -3.27297 | 6358 ft | 245 kts | 323° |
| 2026-04-20 18:32 | 56.06102 | -3.29715 | 7073 ft | 244 kts | 295° |
| 2026-04-20 18:32 | 56.06363 | -3.32683 | 7783 ft | 243 kts | 266° |
| 2026-04-20 18:32 | 56.06066 | -3.35673 | 8461 ft | 252 kts | 255° |
| 2026-04-20 18:32 | 56.05569 | -3.38747 | 9081 ft | 265 kts | 252° |
| 2026-04-20 18:33 | 56.04972 | -3.42011 | 9712 ft | 287 kts | 250° |
| 2026-04-20 18:33 | 56.04311 | -3.45512 | 10457 ft | 306 kts | 250° |
| 2026-04-20 18:33 | 56.03589 | -3.49249 | 11203 ft | 325 kts | 249° |
| 2026-04-20 18:33 | 56.02824 | -3.53135 | 11936 ft | 342 kts | 249° |
| 2026-04-20 18:34 | 56.02016 | -3.57235 | 12670 ft | 358 kts | 249° |
| 2026-04-20 18:34 | 56.01168 | -3.61536 | 13408 ft | 372 kts | 249° |
| 2026-04-20 18:34 | 56.00298 | -3.65954 | 14140 ft | 383 kts | 249° |
| 2026-04-20 18:34 | 55.99400 | -3.70506 | 14871 ft | 393 kts | 249° |
| 2026-04-20 18:35 | 55.98476 | -3.75177 | 15604 ft | 401 kts | 249° |
| 2026-04-20 18:35 | 55.97535 | -3.79844 | 16325 ft | 407 kts | 248° |
| 2026-04-20 18:35 | 55.96549 | -3.84653 | 17060 ft | 411 kts | 248° |
| 2026-04-20 18:35 | 55.95328 | -3.88984 | 17754 ft | 411 kts | 234° |
| 2026-04-20 18:36 | 55.93448 | -3.93125 | 18535 ft | 410 kts | 225° |
| 2026-04-20 18:36 | 55.91432 | -3.96639 | 19268 ft | 409 kts | 220° |
| 2026-04-20 18:36 | 55.89285 | -3.99985 | 20004 ft | 409 kts | 218° |
| 2026-04-20 18:36 | 55.87088 | -4.03216 | 20737 ft | 408 kts | 217° |
| 2026-04-20 18:37 | 55.84873 | -4.06374 | 21465 ft | 407 kts | 216° |
| 2026-04-20 18:37 | 55.82639 | -4.09470 | 22192 ft | 405 kts | 216° |
| 2026-04-20 18:37 | 55.80443 | -4.12501 | 22909 ft | 403 kts | 216° |
| 2026-04-20 18:37 | 55.78224 | -4.15543 | 23637 ft | 400 kts | 216° |
| 2026-04-20 18:38 | 55.76009 | -4.18534 | 24291 ft | 400 kts | 215° |
| 2026-04-20 18:38 | 55.73777 | -4.21541 | 24396 ft | 413 kts | 216° |
| 2026-04-20 18:38 | 55.71442 | -4.24693 | 24393 ft | 428 kts | 216° |
| 2026-04-20 18:38 | 55.69049 | -4.27919 | 24383 ft | 430 kts | 216° |
| 2026-04-20 18:39 | 55.66686 | -4.31101 | 24378 ft | 430 kts | 216° |
| 2026-04-20 18:39 | 55.64289 | -4.34319 | 24377 ft | 432 kts | 216° |
| 2026-04-20 18:39 | 55.61908 | -4.37505 | 24376 ft | 433 kts | 216° |
| 2026-04-20 18:39 | 55.59488 | -4.40730 | 24376 ft | 434 kts | 216° |
| 2026-04-20 18:40 | 55.57091 | -4.43912 | 24375 ft | 435 kts | 216° |
| 2026-04-20 18:40 | 55.54654 | -4.47131 | 24375 ft | 435 kts | 216° |
| 2026-04-20 18:40 | 55.52233 | -4.50338 | 24375 ft | 436 kts | 216° |
| 2026-04-20 18:40 | 55.49810 | -4.53579 | 24375 ft | 436 kts | 217° |
| 2026-04-20 18:41 | 55.47387 | -4.56827 | 24375 ft | 437 kts | 217° |
| 2026-04-20 18:41 | 55.44968 | -4.60069 | 24375 ft | 437 kts | 217° |
| 2026-04-20 18:41 | 55.42572 | -4.63272 | 24374 ft | 437 kts | 217° |
| 2026-04-20 18:41 | 55.40122 | -4.66536 | 24374 ft | 437 kts | 217° |
| 2026-04-20 18:42 | 55.37698 | -4.69752 | 24373 ft | 438 kts | 217° |
| 2026-04-20 18:42 | 55.35261 | -4.72912 | 24372 ft | 438 kts | 215° |
| 2026-04-20 18:42 | 55.32726 | -4.75845 | 24372 ft | 438 kts | 212° |
| 2026-04-20 18:42 | 55.30112 | -4.78619 | 24370 ft | 438 kts | 210° |
| 2026-04-20 18:43 | 55.27491 | -4.81254 | 24367 ft | 438 kts | 209° |
| 2026-04-20 18:43 | 55.24795 | -4.83845 | 24364 ft | 438 kts | 208° |
| 2026-04-20 18:43 | 55.22094 | -4.86346 | 24364 ft | 438 kts | 207° |
| 2026-04-20 18:43 | 55.19382 | -4.88777 | 24360 ft | 438 kts | 207° |
| 2026-04-20 18:44 | 55.16666 | -4.91166 | 24357 ft | 439 kts | 207° |
| 2026-04-20 18:44 | 55.13943 | -4.93533 | 24355 ft | 439 kts | 207° |
| 2026-04-20 18:44 | 55.11204 | -4.95895 | 24353 ft | 439 kts | 207° |
| 2026-04-20 18:44 | 55.08432 | -4.98271 | 24351 ft | 439 kts | 207° |
| 2026-04-20 18:45 | 55.05713 | -5.00592 | 24349 ft | 440 kts | 207° |
| 2026-04-20 18:45 | 55.02963 | -5.02956 | 24347 ft | 440 kts | 207° |
| 2026-04-20 18:45 | 55.00229 | -5.05334 | 24345 ft | 440 kts | 207° |
| 2026-04-20 18:45 | 54.97510 | -5.07708 | 24342 ft | 440 kts | 207° |
| 2026-04-20 18:46 | 54.94757 | -5.10112 | 24341 ft | 440 kts | 207° |
| 2026-04-20 18:46 | 54.92105 | -5.12831 | 24337 ft | 439 kts | 218° |
| 2026-04-20 18:46 | 54.89996 | -5.16536 | 24344 ft | 432 kts | 233° |
| 2026-04-20 18:46 | 54.88289 | -5.20646 | 24294 ft | 405 kts | 236° |
| 2026-04-20 18:47 | 54.86699 | -5.24505 | 23839 ft | 385 kts | 236° |
| 2026-04-20 18:47 | 54.85167 | -5.28208 | 23338 ft | 366 kts | 235° |
| 2026-04-20 18:47 | 54.83727 | -5.31683 | 22839 ft | 351 kts | 235° |
| 2026-04-20 18:47 | 54.82315 | -5.35083 | 22331 ft | 338 kts | 236° |
| 2026-04-20 18:48 | 54.80969 | -5.38321 | 21829 ft | 327 kts | 235° |
| 2026-04-20 18:48 | 54.79664 | -5.41455 | 21329 ft | 318 kts | 235° |
| 2026-04-20 18:48 | 54.78377 | -5.44544 | 20823 ft | 311 kts | 235° |
| 2026-04-20 18:48 | 54.77133 | -5.47530 | 20324 ft | 304 kts | 235° |
| 2026-04-20 18:49 | 54.75903 | -5.50485 | 19819 ft | 299 kts | 235° |
| 2026-04-20 18:49 | 54.74694 | -5.53392 | 19316 ft | 294 kts | 235° |
| 2026-04-20 18:49 | 54.73516 | -5.56228 | 18815 ft | 290 kts | 235° |
| 2026-04-20 18:49 | 54.72329 | -5.59086 | 18237 ft | 289 kts | 235° |
| 2026-04-20 18:50 | 54.71165 | -5.61896 | 17644 ft | 289 kts | 235° |
| 2026-04-20 18:50 | 54.69990 | -5.64738 | 17042 ft | 289 kts | 235° |
| 2026-04-20 18:50 | 54.68928 | -5.67678 | 16443 ft | 288 kts | 242° |
| 2026-04-20 18:50 | 54.67999 | -5.70714 | 15850 ft | 287 kts | 244° |
| 2026-04-20 18:51 | 54.67112 | -5.73812 | 15249 ft | 286 kts | 245° |
| 2026-04-20 18:51 | 54.66256 | -5.76879 | 14655 ft | 286 kts | 245° |
| 2026-04-20 18:51 | 54.65402 | -5.79980 | 14056 ft | 285 kts | 245° |
| 2026-04-20 18:51 | 54.64553 | -5.83080 | 13453 ft | 284 kts | 245° |
| 2026-04-20 18:52 | 54.63707 | -5.86179 | 12850 ft | 283 kts | 245° |
| 2026-04-20 18:52 | 54.62880 | -5.89222 | 12256 ft | 282 kts | 245° |
| 2026-04-20 18:52 | 54.62047 | -5.92304 | 11652 ft | 281 kts | 245° |
| 2026-04-20 18:52 | 54.61222 | -5.95367 | 11051 ft | 280 kts | 245° |
| 2026-04-20 18:53 | 54.60413 | -5.98386 | 10456 ft | 280 kts | 245° |
| 2026-04-20 18:53 | 54.59603 | -6.01438 | 9855 ft | 279 kts | 245° |
| 2026-04-20 18:53 | 54.58801 | -6.04494 | 9252 ft | 278 kts | 245° |
| 2026-04-20 18:53 | 54.58015 | -6.07526 | 8854 ft | 270 kts | 245° |
| 2026-04-20 18:54 | 54.57274 | -6.10411 | 8598 ft | 262 kts | 245° |
| 2026-04-20 18:54 | 54.56542 | -6.13271 | 8346 ft | 259 kts | 245° |
| 2026-04-20 18:54 | 54.55814 | -6.16113 | 8095 ft | 258 kts | 245° |
| 2026-04-20 18:54 | 54.55096 | -6.18915 | 7847 ft | 258 kts | 245° |
| 2026-04-20 18:55 | 54.54369 | -6.21750 | 7596 ft | 257 kts | 245° |
| 2026-04-20 18:55 | 54.53648 | -6.24552 | 7346 ft | 256 kts | 245° |
| 2026-04-20 18:55 | 54.52934 | -6.27336 | 7097 ft | 256 kts | 245° |
| 2026-04-20 18:55 | 54.52211 | -6.30154 | 6845 ft | 255 kts | 245° |
| 2026-04-20 18:56 | 54.51501 | -6.32918 | 6596 ft | 254 kts | 245° |
| 2026-04-20 18:56 | 54.50782 | -6.35719 | 6344 ft | 253 kts | 245° |
| 2026-04-20 18:56 | 54.50076 | -6.38462 | 6096 ft | 252 kts | 245° |
| 2026-04-20 18:56 | 54.49362 | -6.41234 | 5844 ft | 251 kts | 245° |
| 2026-04-20 18:57 | 54.48697 | -6.44018 | 5584 ft | 251 kts | 253° |
| 2026-04-20 18:57 | 54.48636 | -6.46940 | 5408 ft | 249 kts | 281° |
| 2026-04-20 18:57 | 54.49357 | -6.49631 | 5235 ft | 249 kts | 308° |
| 2026-04-20 18:57 | 54.50658 | -6.51589 | 5089 ft | 248 kts | 327° |
| 2026-04-20 18:58 | 54.52142 | -6.53077 | 4916 ft | 248 kts | 337° |
| 2026-04-20 18:58 | 54.53813 | -6.53600 | 4730 ft | 243 kts | 4° |
| 2026-04-20 18:58 | 54.55426 | -6.52896 | 4582 ft | 234 kts | 25° |
| 2026-04-20 18:58 | 54.56726 | -6.51484 | 4415 ft | 215 kts | 40° |
| 2026-04-20 18:59 | 54.57758 | -6.49704 | 4054 ft | 207 kts | 51° |
| 2026-04-20 18:59 | 54.58601 | -6.47669 | 3554 ft | 207 kts | 58° |
| 2026-04-20 18:59 | 54.59309 | -6.45499 | 3057 ft | 207 kts | 63° |
| 2026-04-20 18:59 | 54.59927 | -6.43313 | 2596 ft | 198 kts | 66° |
| 2026-04-20 19:00 | 54.60473 | -6.41230 | 2207 ft | 183 kts | 67° |
| 2026-04-20 19:00 | 54.60982 | -6.39289 | 1861 ft | 169 kts | 66° |
| 2026-04-20 19:00 | 54.61428 | -6.37626 | 1701 ft | 138 kts | 66° |
| 2026-04-20 19:00 | 54.61815 | -6.36186 | 1573 ft | 131 kts | 66° |
| 2026-04-20 19:01 | 54.62200 | -6.34756 | 1460 ft | 131 kts | 66° |
| 2026-04-20 19:01 | 54.62584 | -6.33327 | 1364 ft | 133 kts | 66° |
| 2026-04-20 19:01 | 54.62977 | -6.31871 | 1270 ft | 134 kts | 66° |
| 2026-04-20 19:01 | 54.63369 | -6.30416 | 1160 ft | 135 kts | 66° |
| 2026-04-20 19:02 | 54.63765 | -6.28947 | 1008 ft | 137 kts | 66° |
| 2026-04-20 19:02 | 54.64166 | -6.27458 | 835 ft | 136 kts | 66° |
| 2026-04-20 19:02 | 54.64568 | -6.25966 | 658 ft | 136 kts | 65° |
| 2026-04-20 19:02 | 54.64966 | -6.24483 | 479 ft | 135 kts | 65° |
| 2026-04-20 19:03 | 54.65360 | -6.23022 | 286 ft | 134 kts | 65° |
| 2026-04-20 19:03 | 54.65685 | -6.21811 | 277 ft | 72 kts | 65° |
| 2026-04-20 19:03 | 54.65804 | -6.21370 | 277 ft | 24 kts | 61° |
| 2026-04-20 19:03 | 54.65900 | -6.21323 | 277 ft | 9 kts | 335° |
| 2026-04-20 19:04 | 54.65952 | -6.21368 | 277 ft | 8 kts | 324° |
| 2026-04-20 19:04 | 54.65966 | -6.21453 | 277 ft | 8 kts | 244° |
| 2026-04-20 19:04 | 54.65952 | -6.21544 | 277 ft | 8 kts | 283° |
| 2026-04-20 19:04 | 54.65994 | -6.21596 | 277 ft | 8 kts | 334° |
| 2026-04-20 19:05 | 54.66025 | -6.21659 | 277 ft | 7 kts | 264° |
| 2026-04-20 19:05 | 54.66009 | -6.21727 | 277 ft | 3 kts | 246° |
| 2026-04-20 19:05 | 54.66007 | -6.21736 | 277 ft | 0 kts | 246° |